createdAt,value
2017-11-03T00:00:20.782Z,42.77
2017-11-03T00:02:48.326Z,40.20
2017-11-03T00:05:15.822Z,40.77
2017-11-03T00:07:44.102Z,45.70
2017-11-03T00:10:11.638Z,43.27
2017-11-03T00:12:39.147Z,45.90
2017-11-03T00:15:06.693Z,40.70
2017-11-03T00:17:34.202Z,39.07
2017-11-03T00:20:01.730Z,45.07
2017-11-03T00:22:29.222Z,36.70
2017-11-03T00:24:56.754Z,37.50
2017-11-03T00:27:24.258Z,41.03
2017-11-03T00:29:51.801Z,40.80
2017-11-03T00:32:19.298Z,37.03
2017-11-03T00:34:46.794Z,38.47
2017-11-03T00:37:14.326Z,44.10
2017-11-03T00:39:41.826Z,41.30
2017-11-03T00:42:09.356Z,46.43
2017-11-03T00:44:36.858Z,41.10
2017-11-03T00:47:04.382Z,44.57
2017-11-03T00:49:31.874Z,39.13
2017-11-03T00:52:00.176Z,37.27
2017-11-03T00:54:27.670Z,40.43
2017-11-03T00:56:55.199Z,42.50
2017-11-03T00:59:22.685Z,44.43
2017-11-03T01:01:50.209Z,42.50
2017-11-03T01:04:17.705Z,42.80
2017-11-03T01:06:45.254Z,48.10
2017-11-03T01:09:13.518Z,48.10
2017-11-03T01:11:41.007Z,40.67
2017-11-03T01:14:08.534Z,39.20
2017-11-03T01:16:36.054Z,43.87
2017-11-03T01:19:04.366Z,46.33
2017-11-03T01:21:32.626Z,47.30
2017-11-03T01:24:00.154Z,43.27
2017-11-03T01:26:27.662Z,41.87
2017-11-03T01:28:55.193Z,46.30
2017-11-03T01:31:22.689Z,46.10
2017-11-03T01:33:50.224Z,46.27
2017-11-03T01:36:17.722Z,53.00
2017-11-03T01:38:45.250Z,45.30
2017-11-03T01:41:13.511Z,40.23
2017-11-03T01:43:41.006Z,49.87
2017-11-03T01:46:08.533Z,45.30
2017-11-03T01:48:36.026Z,45.73
2017-11-03T01:51:03.559Z,50.53
2017-11-03T01:53:31.054Z,51.07
2017-11-03T01:55:58.581Z,45.97
2017-11-03T01:58:26.078Z,48.07
2017-11-03T02:00:53.623Z,58.20
2017-11-03T02:03:21.116Z,45.70
2017-11-03T02:05:48.610Z,42.57
2017-11-03T02:08:16.142Z,41.73
2017-11-03T02:10:43.634Z,39.80
2017-11-03T02:13:11.162Z,47.23
2017-11-03T02:15:39.437Z,45.27
2017-11-03T02:18:06.971Z,43.13
2017-11-03T02:20:34.462Z,48.93
2017-11-03T02:23:02.010Z,38.53
2017-11-03T02:25:29.510Z,37.13
2017-11-03T02:27:57.006Z,41.60
2017-11-03T02:30:25.304Z,43.97
2017-11-03T02:32:53.767Z,35.07
2017-11-03T02:35:21.298Z,38.80
2017-11-03T02:37:48.797Z,44.23
2017-11-03T02:40:16.327Z,49.67
2017-11-03T02:42:43.832Z,37.10
2017-11-03T02:45:25.121Z,44.83
2017-11-03T02:47:52.618Z,41.50
2017-11-03T02:50:20.142Z,38.50
2017-11-03T02:52:47.640Z,41.33
2017-11-03T02:55:15.326Z,42.43
2017-11-03T02:57:42.827Z,46.03
2017-11-03T03:00:10.321Z,51.80
2017-11-03T03:02:37.861Z,35.30
2017-11-03T03:05:05.354Z,34.83
2017-11-03T03:07:32.921Z,37.63
2017-11-03T03:10:01.178Z,42.00
2017-11-03T03:12:28.701Z,37.37
2017-11-03T03:14:56.212Z,46.60
2017-11-03T03:17:23.741Z,36.90
2017-11-03T03:19:51.233Z,45.87
2017-11-03T03:22:18.911Z,43.57
2017-11-03T03:24:46.401Z,47.10
2017-11-03T03:27:13.893Z,37.40
2017-11-03T03:29:41.418Z,44.33
2017-11-03T03:32:08.917Z,41.17
2017-11-03T03:34:36.446Z,53.27
2017-11-03T03:37:03.945Z,41.53
2017-11-03T03:39:31.478Z,38.53
2017-11-03T03:41:59.737Z,42.13
2017-11-03T03:44:27.270Z,42.50
2017-11-03T03:46:54.758Z,44.60
2017-11-03T03:49:22.286Z,47.33
2017-11-03T03:51:49.774Z,52.30
2017-11-03T03:54:17.302Z,47.03
2017-11-03T03:56:44.793Z,47.03
2017-11-03T03:59:12.288Z,45.73
2017-11-03T04:01:39.826Z,41.30
2017-11-03T04:04:08.081Z,48.80
2017-11-03T04:06:35.604Z,34.57
2017-11-03T04:09:03.102Z,42.73
2017-11-03T04:11:30.631Z,41.10
2017-11-03T04:13:58.119Z,45.03
2017-11-03T04:16:25.643Z,44.47
2017-11-03T04:18:53.138Z,39.43
2017-11-03T04:21:21.434Z,48.50
2017-11-03T04:23:49.703Z,50.27
2017-11-03T04:26:17.249Z,40.97
2017-11-03T04:28:44.740Z,39.93
2017-11-03T04:31:12.233Z,48.00
2017-11-03T04:33:40.530Z,50.77
2017-11-03T04:36:08.030Z,36.10
2017-11-03T04:38:35.558Z,47.23
2017-11-03T04:41:03.049Z,42.17
2017-11-03T04:43:30.589Z,43.47
2017-11-03T04:45:58.114Z,52.97
2017-11-03T04:48:25.654Z,40.83
2017-11-03T04:50:53.913Z,41.73
2017-11-03T04:53:21.406Z,39.83
2017-11-03T04:55:48.940Z,39.83
2017-11-03T04:58:16.430Z,45.93
2017-11-03T05:00:43.957Z,45.60
2017-11-03T05:03:11.445Z,39.30
2017-11-03T05:05:38.982Z,44.10
2017-11-03T05:08:06.479Z,44.17
2017-11-03T05:10:34.006Z,40.63
2017-11-03T05:13:01.494Z,39.80
2017-11-03T05:15:29.999Z,37.60
2017-11-03T05:17:57.530Z,44.37
2017-11-03T05:20:25.030Z,42.83
2017-11-03T05:22:53.353Z,44.57
2017-11-03T05:25:20.876Z,41.50
2017-11-03T05:27:48.461Z,42.53
2017-11-03T05:30:16.735Z,36.90
2017-11-03T05:32:45.284Z,40.63
2017-11-03T05:35:12.788Z,46.13
2017-11-03T05:37:40.369Z,37.27
2017-11-03T05:40:07.870Z,41.93
2017-11-03T05:42:35.414Z,42.73
2017-11-03T05:45:02.902Z,39.03
2017-11-03T05:47:31.162Z,38.43
2017-11-03T05:49:58.694Z,37.77
2017-11-03T05:52:26.189Z,36.43
2017-11-03T05:54:53.710Z,41.83
2017-11-03T05:57:21.974Z,42.00
2017-11-03T05:59:49.507Z,41.37
2017-11-03T06:02:16.998Z,42.60
2017-11-03T06:04:44.550Z,35.00
2017-11-03T06:07:12.040Z,38.40
2017-11-03T06:09:39.535Z,42.43
2017-11-03T06:12:07.062Z,36.43
2017-11-03T06:14:34.557Z,36.47
2017-11-03T06:17:02.099Z,41.37
2017-11-03T06:19:29.597Z,39.00
2017-11-03T06:21:57.129Z,45.03
2017-11-03T06:24:24.622Z,42.00
2017-11-03T06:26:52.149Z,37.10
2017-11-03T06:29:19.635Z,38.80
2017-11-03T06:31:47.170Z,39.73
2017-11-03T06:34:14.688Z,45.07
2017-11-03T06:36:42.318Z,39.93
2017-11-03T06:39:09.815Z,40.80
2017-11-03T06:41:38.070Z,41.20
2017-11-03T06:44:05.610Z,40.23
2017-11-03T06:46:33.103Z,35.90
2017-11-03T06:49:00.629Z,33.80
2017-11-03T06:51:28.127Z,40.50
2017-11-03T06:53:56.467Z,41.10
2017-11-03T06:56:24.725Z,47.97
2017-11-03T06:58:52.255Z,43.37
2017-11-03T07:01:19.746Z,42.73
2017-11-03T07:03:47.288Z,36.27
2017-11-03T07:06:15.546Z,40.23
2017-11-03T07:08:43.070Z,35.50
2017-11-03T07:11:10.577Z,36.70
2017-11-03T07:13:38.114Z,41.20
2017-11-03T07:16:05.672Z,47.20
2017-11-03T07:18:33.170Z,44.83
2017-11-03T07:21:00.701Z,44.43
2017-11-03T07:23:28.963Z,41.60
2017-11-03T07:25:56.497Z,31.80
2017-11-03T07:28:23.992Z,42.27
2017-11-03T07:30:51.518Z,41.93
2017-11-03T07:33:19.018Z,36.03
2017-11-03T07:35:46.573Z,40.03
2017-11-03T07:38:14.071Z,38.57
2017-11-03T07:40:41.569Z,37.17
2017-11-03T07:43:09.094Z,39.20
2017-11-03T07:45:36.584Z,34.73
2017-11-03T07:48:04.114Z,33.27
2017-11-03T07:50:31.642Z,42.70
2017-11-03T07:52:59.173Z,37.07
2017-11-03T07:55:26.665Z,31.80
2017-11-03T07:57:54.193Z,34.70
2017-11-03T08:00:21.689Z,36.00
2017-11-03T08:02:49.234Z,35.10
2017-11-03T08:05:17.498Z,36.13
2017-11-03T08:07:44.998Z,34.60
2017-11-03T08:10:13.296Z,33.10
2017-11-03T08:12:40.794Z,33.00
2017-11-03T08:15:08.326Z,34.27
2017-11-03T08:17:36.594Z,35.53
2017-11-03T08:20:04.125Z,29.20
2017-11-03T08:22:31.632Z,27.80
2017-11-03T08:24:59.161Z,33.50
2017-11-03T08:27:26.662Z,33.70
2017-11-03T08:29:54.190Z,29.97
2017-11-03T08:32:21.737Z,29.90
2017-11-03T08:34:50.012Z,27.67
2017-11-03T08:37:17.541Z,29.07
2017-11-03T08:39:45.042Z,31.40
2017-11-03T08:42:12.569Z,31.87
2017-11-03T08:44:40.074Z,33.53
2017-11-03T08:47:07.606Z,33.80
2017-11-03T08:49:35.113Z,29.23
2017-11-03T08:52:02.649Z,27.80
2017-11-03T08:54:30.177Z,33.60
2017-11-03T08:56:57.730Z,38.93
2017-11-03T08:59:25.225Z,28.90
2017-11-03T09:01:52.725Z,29.87
2017-11-03T09:04:21.036Z,25.53
2017-11-03T09:06:48.537Z,27.47
2017-11-03T09:09:16.078Z,24.43
2017-11-03T09:11:43.578Z,28.13
2017-11-03T09:14:11.109Z,31.60
2017-11-03T09:16:39.017Z,28.50
2017-11-03T09:19:06.558Z,25.83
2017-11-03T09:21:34.049Z,31.40
2017-11-03T09:24:01.602Z,31.67
2017-11-03T09:26:29.869Z,26.50
2017-11-03T09:28:57.367Z,31.67
2017-11-03T09:31:24.899Z,30.47
2017-11-03T09:33:52.406Z,25.37
2017-11-03T09:36:20.705Z,21.77
2017-11-03T09:38:48.206Z,21.67
2017-11-03T09:41:15.737Z,21.77
2017-11-03T09:43:44.006Z,22.00
2017-11-03T09:46:11.531Z,25.77
2017-11-03T09:48:39.031Z,21.50
2017-11-03T09:51:06.574Z,22.20
2017-11-03T09:53:34.073Z,24.50
2017-11-03T09:56:01.623Z,25.73
2017-11-03T09:58:29.287Z,26.13
2017-11-03T10:00:56.786Z,27.97
2017-11-03T10:03:24.305Z,21.37
2017-11-03T10:05:52.570Z,18.90
2017-11-03T10:08:20.103Z,28.83
2017-11-03T10:10:47.598Z,23.23
2017-11-03T10:13:15.140Z,22.40
2017-11-03T10:15:42.668Z,20.73
2017-11-03T10:18:10.965Z,18.70
2017-11-03T10:20:39.233Z,26.03
2017-11-03T10:23:06.785Z,17.83
2017-11-03T10:25:34.281Z,17.60
2017-11-03T10:28:01.773Z,25.73
2017-11-03T10:30:30.071Z,22.43
2017-11-03T10:32:58.329Z,17.80
2017-11-03T10:35:25.865Z,19.13
2017-11-03T10:37:53.365Z,25.83
2017-11-03T10:40:20.907Z,20.73
2017-11-03T10:42:48.401Z,23.17
2017-11-03T10:45:16.845Z,26.50
2017-11-03T10:47:45.110Z,22.73
2017-11-03T10:50:12.605Z,20.73
2017-11-03T10:52:40.898Z,22.70
2017-11-03T10:55:09.166Z,22.93
2017-11-03T10:57:36.700Z,27.87
2017-11-03T11:00:04.197Z,21.43
2017-11-03T11:02:31.765Z,22.03
2017-11-03T11:04:59.265Z,23.77
2017-11-03T11:07:26.813Z,24.13
2017-11-03T11:09:54.310Z,25.33
2017-11-03T11:12:22.634Z,22.30
2017-11-03T11:14:50.137Z,20.73
2017-11-03T11:17:17.635Z,28.67
2017-11-03T11:19:45.967Z,22.13
2017-11-03T11:22:13.470Z,20.00
2017-11-03T11:24:40.998Z,20.53
2017-11-03T11:27:08.494Z,27.70
2017-11-03T11:29:36.029Z,18.53
2017-11-03T11:32:03.568Z,24.83
2017-11-03T11:34:31.183Z,25.63
2017-11-03T11:36:58.681Z,20.43
2017-11-03T11:39:26.178Z,27.17
2017-11-03T11:41:53.801Z,22.87
2017-11-03T11:44:21.313Z,25.93
2017-11-03T11:46:48.862Z,19.37
2017-11-03T11:49:16.354Z,21.50
2017-11-03T11:51:43.883Z,23.47
2017-11-03T11:54:11.401Z,24.67
2017-11-03T11:56:38.933Z,23.70
2017-11-03T11:59:06.430Z,20.23
2017-11-03T12:01:33.982Z,22.20
2017-11-03T12:04:01.482Z,28.50
2017-11-03T12:06:28.987Z,27.63
2017-11-03T12:08:56.520Z,33.20
2017-11-03T12:11:24.018Z,27.77
2017-11-03T12:13:51.552Z,24.30
2017-11-03T12:16:19.049Z,25.83
2017-11-03T12:18:46.586Z,27.23
2017-11-03T12:21:14.089Z,24.40
2017-11-03T12:23:41.659Z,33.30
2017-11-03T12:26:09.186Z,23.00
2017-11-03T12:28:36.725Z,21.40
2017-11-03T12:31:04.222Z,25.13
2017-11-03T12:33:32.534Z,23.37
2017-11-03T12:36:00.035Z,23.63
2017-11-03T12:38:27.533Z,23.90
2017-11-03T12:40:55.062Z,24.90
2017-11-03T12:43:23.398Z,23.03
2017-11-03T12:45:50.949Z,28.23
2017-11-03T12:48:19.225Z,21.30
2017-11-03T12:50:46.760Z,23.70
2017-11-03T12:53:14.295Z,23.67
2017-11-03T12:55:41.845Z,25.30
2017-11-03T12:58:09.346Z,23.43
2017-11-03T13:00:36.890Z,25.63
2017-11-03T13:03:04.382Z,25.10
2017-11-03T13:05:31.893Z,24.80
2017-11-03T13:07:59.423Z,31.00
2017-11-03T13:10:26.921Z,25.47
2017-11-03T13:12:54.462Z,30.87
2017-11-03T13:15:21.960Z,28.03
2017-11-03T13:17:49.769Z,22.90
2017-11-03T13:20:17.274Z,24.93
2017-11-03T13:22:44.798Z,25.80
2017-11-03T13:25:13.082Z,25.30
2017-11-03T13:27:41.394Z,29.73
2017-11-03T13:30:08.902Z,29.90
2017-11-03T13:32:36.404Z,37.87
2017-11-03T13:35:04.697Z,25.17
2017-11-03T13:37:32.953Z,34.80
2017-11-03T13:40:00.481Z,28.30
2017-11-03T13:42:27.982Z,30.77
2017-11-03T13:44:55.531Z,34.60
2017-11-03T13:47:23.032Z,30.97
2017-11-03T13:49:50.533Z,28.07
2017-11-03T13:52:18.086Z,27.23
2017-11-03T13:54:45.583Z,35.23
2017-11-03T13:57:14.710Z,32.33
2017-11-03T13:59:42.210Z,30.60
2017-11-03T14:02:09.750Z,28.07
2017-11-03T14:04:38.010Z,26.73
2017-11-03T14:07:05.534Z,28.63
2017-11-03T14:09:33.034Z,27.33
2017-11-03T14:12:00.581Z,26.00
2017-11-03T14:14:28.082Z,31.07
2017-11-03T14:16:55.582Z,39.73
2017-11-03T14:19:23.123Z,34.47
2017-11-03T14:21:50.717Z,28.67
2017-11-03T14:24:19.386Z,33.87
2017-11-03T14:26:46.881Z,27.03
2017-11-03T14:29:14.419Z,26.67
2017-11-03T14:31:41.921Z,24.07
2017-11-03T14:34:09.445Z,27.47
2017-11-03T14:36:36.946Z,26.63
2017-11-03T14:39:04.490Z,23.50
2017-11-03T14:41:31.990Z,27.00
2017-11-03T14:43:59.487Z,25.53
2017-11-03T14:46:27.022Z,24.77
2017-11-03T14:48:54.524Z,26.60
2017-11-03T14:51:22.065Z,25.63
2017-11-03T14:53:49.566Z,23.30
2017-11-03T14:56:17.104Z,19.70
2017-11-03T14:58:44.598Z,20.43
2017-11-03T15:01:12.129Z,24.67
2017-11-03T15:03:40.783Z,29.13
2017-11-03T15:06:08.310Z,23.13
2017-11-03T15:08:35.810Z,29.30
2017-11-03T15:11:03.342Z,29.40
2017-11-03T15:13:30.837Z,32.93
2017-11-03T15:15:58.366Z,25.20
2017-11-03T15:18:26.626Z,24.00
2017-11-03T15:20:54.130Z,24.53
2017-11-03T15:23:21.661Z,22.60
2017-11-03T15:25:49.158Z,18.70
2017-11-03T15:28:16.694Z,10.33
2017-11-03T15:30:44.181Z,13.43
2017-11-03T15:33:11.715Z,10.43
2017-11-03T15:35:39.202Z,8.40
2017-11-03T15:38:06.725Z,9.00
2017-11-03T15:40:34.980Z,10.80
2017-11-03T15:43:02.502Z,8.30
2017-11-03T15:45:30.027Z,17.10
2017-11-03T15:47:57.518Z,13.70
2017-11-03T15:50:25.805Z,11.43
2017-11-03T15:52:54.061Z,10.03
2017-11-03T15:55:21.606Z,11.57
2017-11-03T15:57:49.097Z,7.33
2017-11-03T16:00:16.590Z,10.00
2017-11-03T16:02:44.111Z,9.27
2017-11-03T16:05:11.609Z,10.20
2017-11-03T16:07:39.904Z,7.50
2017-11-03T16:10:07.394Z,12.63
2017-11-03T16:12:34.918Z,7.93
2017-11-03T16:15:02.414Z,8.73
2017-11-03T16:17:29.933Z,9.70
2017-11-03T16:19:57.430Z,10.90
2017-11-03T16:22:24.949Z,9.90
2017-11-03T16:24:52.471Z,13.33
2017-11-03T16:27:20.011Z,11.80
2017-11-03T16:29:48.261Z,14.90
2017-11-03T16:32:15.754Z,13.03
2017-11-03T16:34:43.288Z,24.53
2017-11-03T16:37:10.786Z,22.67
2017-11-03T16:39:38.313Z,27.80
2017-11-03T16:42:05.810Z,26.30
2017-11-03T16:44:33.330Z,28.57
2017-11-03T16:47:01.594Z,33.80
2017-11-03T16:49:29.118Z,30.30
2017-11-03T16:51:56.609Z,31.67
2017-11-03T16:54:24.153Z,35.77
2017-11-03T16:56:51.646Z,34.77
2017-11-03T16:59:19.134Z,38.20
2017-11-03T17:01:46.657Z,43.93
2017-11-03T17:04:14.149Z,33.47
2017-11-03T17:06:41.678Z,30.90
2017-11-03T17:09:09.165Z,39.83
2017-11-03T17:11:37.455Z,40.57
2017-11-03T17:14:05.718Z,39.13
2017-11-03T17:16:33.249Z,35.70
2017-11-03T17:19:00.762Z,34.87
2017-11-03T17:21:28.290Z,39.93
2017-11-03T17:23:55.794Z,34.53
2017-11-03T17:26:23.330Z,38.63
2017-11-03T17:28:50.813Z,38.50
2017-11-03T17:31:18.322Z,46.90
2017-11-03T17:33:45.845Z,36.50
2017-11-03T17:36:13.337Z,42.80
2017-11-03T17:38:40.862Z,40.80
2017-11-03T17:41:09.122Z,41.30
2017-11-03T17:43:36.662Z,38.63
2017-11-03T17:46:04.174Z,44.47
2017-11-03T17:48:31.693Z,43.00
2017-11-03T17:50:59.186Z,44.03
2017-11-03T17:53:26.710Z,55.10
2017-11-03T17:55:54.967Z,49.93
2017-11-03T17:58:22.490Z,47.43
2017-11-03T18:00:49.986Z,49.40
2017-11-03T18:03:17.522Z,46.70
2017-11-03T18:05:45.026Z,47.70
2017-11-03T18:08:13.329Z,49.90
2017-11-03T18:10:40.849Z,47.60
2017-11-03T18:13:08.378Z,49.07
2017-11-03T18:15:35.906Z,65.30
2017-11-03T18:18:03.398Z,46.67
2017-11-03T18:20:30.953Z,51.90
2017-11-03T18:22:58.458Z,57.80
2017-11-03T18:25:26.002Z,48.67
2017-11-03T18:27:53.488Z,49.70
2017-11-03T18:30:20.981Z,64.03
2017-11-03T18:32:48.529Z,60.27
2017-11-03T18:35:16.021Z,47.50
2017-11-03T18:37:43.544Z,58.20
2017-11-03T18:40:11.038Z,63.93
2017-11-03T18:42:38.563Z,68.50
2017-11-03T18:45:06.822Z,57.37
2017-11-03T18:47:34.354Z,70.87
2017-11-03T18:50:01.850Z,85.10
2017-11-03T18:52:29.385Z,73.50
2017-11-03T18:54:56.882Z,82.03
2017-11-03T18:57:24.370Z,70.87
2017-11-03T18:59:51.899Z,69.97
2017-11-03T19:02:20.313Z,96.23
2017-11-03T19:04:47.842Z,81.97
2017-11-03T19:07:16.102Z,63.03
2017-11-03T19:09:43.625Z,69.83
2017-11-03T19:12:11.122Z,73.67
2017-11-03T19:14:38.661Z,65.20
2017-11-03T19:17:06.153Z,68.27
2017-11-03T19:19:33.645Z,65.33
2017-11-03T19:22:01.172Z,63.63
2017-11-03T19:24:30.420Z,67.30
2017-11-03T19:26:57.982Z,66.87
2017-11-03T19:29:25.490Z,65.47
2017-11-03T19:31:53.174Z,85.03
2017-11-03T19:34:20.670Z,80.37
2017-11-03T19:36:48.185Z,79.33
2017-11-03T19:39:15.713Z,86.83
2017-11-03T19:41:44.021Z,72.63
2017-11-03T19:44:11.612Z,82.17
2017-11-03T19:46:39.747Z,76.80
2017-11-03T19:49:07.317Z,79.63
2017-11-03T19:51:34.811Z,76.07
2017-11-03T19:54:03.118Z,68.20
2017-11-03T19:56:30.609Z,75.07
2017-11-03T19:58:58.939Z,68.17
2017-11-03T20:01:26.434Z,76.77
2017-11-03T20:03:54.741Z,59.37
2017-11-03T20:06:22.237Z,66.53
2017-11-03T20:08:49.729Z,70.17
2017-11-03T20:11:17.283Z,60.67
2017-11-03T20:13:44.992Z,68.50
2017-11-03T20:16:13.303Z,63.17
2017-11-03T20:18:41.558Z,64.00
2017-11-03T20:21:09.089Z,71.27
2017-11-03T20:23:36.593Z,70.00
2017-11-03T20:26:04.122Z,70.13
2017-11-03T20:28:32.387Z,69.97
2017-11-03T20:30:59.936Z,71.87
2017-11-03T20:33:27.442Z,77.20
2017-11-03T20:35:54.974Z,78.60
2017-11-03T20:38:22.470Z,93.83
2017-11-03T20:40:50.025Z,74.00
2017-11-03T20:43:17.522Z,74.70
2017-11-03T20:45:45.066Z,78.13
2017-11-03T20:48:12.570Z,96.43
2017-11-03T20:50:40.862Z,99.10
2017-11-03T20:53:08.385Z,96.43
2017-11-03T20:55:35.886Z,75.43
2017-11-03T20:58:03.462Z,100.57
2017-11-03T21:00:30.958Z,89.90
2017-11-03T21:02:59.254Z,105.90
2017-11-03T21:05:27.514Z,97.07
2017-11-03T21:07:55.050Z,87.07
2017-11-03T21:10:22.879Z,79.90
2017-11-03T21:12:51.206Z,67.33
2017-11-03T21:15:19.482Z,96.37
2017-11-03T21:17:47.025Z,96.90
2017-11-03T21:20:14.519Z,99.70
2017-11-03T21:22:42.014Z,101.93
2017-11-03T21:25:09.554Z,105.10
2017-11-03T21:27:37.814Z,91.33
2017-11-03T21:30:05.342Z,94.43
2017-11-03T21:32:32.843Z,113.07
2017-11-03T21:35:00.379Z,95.17
2017-11-03T21:37:27.882Z,107.03
2017-11-03T21:39:55.421Z,87.73
2017-11-03T21:42:23.689Z,79.67
2017-11-03T21:44:51.234Z,83.00
2017-11-03T21:47:18.741Z,83.97
2017-11-03T21:49:46.239Z,70.53
2017-11-03T21:52:13.762Z,76.70
2017-11-03T21:54:41.288Z,82.03
2017-11-03T21:57:08.823Z,102.73
2017-11-03T21:59:36.317Z,96.00
2017-11-03T22:02:04.623Z,101.13
2017-11-03T22:04:32.128Z,86.00
2017-11-03T22:06:59.654Z,97.00
2017-11-03T22:09:27.918Z,107.57
2017-11-03T22:11:55.442Z,81.60
2017-11-03T22:14:22.948Z,64.43
2017-11-03T22:16:50.498Z,99.07
2017-11-03T22:19:17.992Z,124.70
2017-11-03T22:21:45.487Z,101.47
2017-11-03T22:24:13.017Z,98.57
2017-11-03T22:26:41.274Z,95.23
2017-11-03T22:29:08.810Z,107.30
2017-11-03T22:31:36.306Z,107.50
2017-11-03T22:34:04.606Z,135.33
2017-11-03T22:36:32.874Z,125.47
2017-11-03T22:39:00.426Z,138.33
2017-11-03T22:41:27.917Z,124.67
2017-11-03T22:43:55.443Z,108.67
2017-11-03T22:46:22.997Z,107.20
2017-11-03T22:48:50.494Z,113.40
2017-11-03T22:51:18.027Z,122.17
2017-11-03T22:53:45.521Z,103.57
2017-11-03T22:56:13.058Z,104.67
2017-11-03T22:58:41.322Z,108.33
2017-11-03T23:01:08.866Z,114.27
2017-11-03T23:03:36.367Z,117.73
2017-11-03T23:06:03.922Z,121.33
2017-11-03T23:08:31.414Z,120.30
2017-11-03T23:10:58.921Z,109.00
2017-11-03T23:13:27.221Z,92.77
2017-11-03T23:15:54.717Z,84.50
2017-11-03T23:18:22.250Z,89.30
2017-11-03T23:20:50.518Z,86.93
2017-11-03T23:23:18.045Z,99.73
2017-11-03T23:25:45.550Z,93.77
2017-11-03T23:28:13.078Z,112.97
2017-11-03T23:30:40.569Z,103.70
2017-11-03T23:33:08.109Z,80.07
2017-11-03T23:35:36.365Z,76.37
2017-11-03T23:38:03.875Z,80.57
2017-11-03T23:40:31.402Z,74.67
2017-11-03T23:42:58.894Z,55.63
2017-11-03T23:45:27.197Z,59.80
2017-11-03T23:47:55.458Z,53.40
2017-11-03T23:50:23.010Z,47.70
2017-11-03T23:52:50.553Z,47.33
2017-11-03T23:55:18.098Z,52.37
2017-11-03T23:57:45.594Z,43.93
